Time;durP1;ratioP1;P1;durP2;ratioP2;P2;SDS_P1;SDS_P2;PMS_P1;PMS_P2;Temp;Humidity;BMP_temperature;BMP_pressure;BME280_temperature;BME280_humidity;BME280_pressure;Samples;Min_cycle;Max_cycle;Signal;HPM_P1;HPM_P2
2022/07/13 03:55:56;;;;;;;1.98;1.02;;;;;;;17.72;49.61;100757.31;6226815;27;20170;-87
2022/07/13 03:59:00;;;;;;;0.80;0.80;;;;;;;17.90;49.28;100765.66;5406682;33;33781;-88
2022/07/13 04:26:54;;;;;;;1.75;1.08;;;;;;;18.80;46.48;100751.87;958966;27;20393;-88
2022/07/13 04:30:19;;;;;;;2.17;0.80;;;;;;;18.90;46.13;100745.94;5434277;27;33763;-89
2022/07/13 04:33:51;;;;;;;1.05;0.98;;;;;;;18.96;46.15;100749.66;5400821;27;34846;-89
2022/07/13 08:26:14;;;;;;;1.33;1.17;;;;;;;25.89;34.16;100736.88;1302744;27;20396;-88
2022/07/13 08:29:18;;;;;;;0.52;0.52;;;;;;;26.10;33.69;100731.41;5359759;33;33926;-88
2022/07/13 08:39:32;;;;;;;1.35;1.00;;;;;;;26.07;33.59;100735.53;5433550;27;34867;-88
2022/07/13 08:54:49;;;;;;;2.03;1.00;;;;;;;26.45;33.14;100730.62;5212585;31;20130;-87
2022/07/13 08:57:52;;;;;;;0.90;0.85;;;;;;;26.43;33.25;100714.31;5378246;33;32492;-88
2022/07/13 09:00:55;;;;;;;2.00;0.88;;;;;;;26.53;32.97;100716.31;5378361;33;34570;-88
2022/07/13 09:03:58;;;;;;;1.10;0.77;;;;;;;26.46;33.01;100713.78;5365596;33;32411;-87
2022/07/13 09:07:06;;;;;;;0.80;0.80;;;;;;;26.50;33.12;100704.97;5365612;33;35159;-86
2022/07/13 09:10:09;;;;;;;1.77;0.70;;;;;;;26.84;32.80;100700.53;5360391;33;33517;-85
2022/07/13 09:13:33;;;;;;;1.05;0.88;;;;;;;27.03;32.09;100703.53;5346907;33;34560;-85
2022/07/13 09:16:38;;;;;;;1.92;0.75;;;;;;;27.04;31.83;100705.19;5359863;33;34395;-85
2022/07/13 09:19:44;;;;;;;1.73;0.90;;;;;;;27.13;31.75;100697.16;5359460;33;34316;-85
2022/07/13 09:22:53;;;;;;;1.65;0.82;;;;;;;27.47;31.35;100694.59;5357900;33;33924;-85
2022/07/13 09:25:56;;;;;;;1.87;0.70;;;;;;;27.44;31.21;100689.62;5363313;33;34942;-84
2022/07/13 09:28:59;;;;;;;7.20;1.15;;;;;;;27.41;31.40;100689.34;5362250;33;33789;-84
2022/07/13 09:32:07;;;;;;;2.08;0.77;;;;;;;27.47;30.96;100696.53;5342257;33;33642;-85
2022/07/13 09:35:10;;;;;;;1.92;0.85;;;;;;;27.50;31.25;100701.50;5365302;33;34604;-84
2022/07/13 09:38:36;;;;;;;0.73;0.73;;;;;;;27.60;30.72;100693.12;5364547;33;33588;-86
2022/07/13 09:41:41;;;;;;;0.70;0.70;;;;;;;27.74;30.23;100696.94;5367042;33;33545;-84
2022/07/13 09:48:19;;;;;;;2.05;0.90;;;;;;;27.95;29.74;100685.78;5359173;33;33185;-85
2022/07/13 09:51:26;;;;;;;1.05;1.02;;;;;;;27.97;29.67;100695.47;5373697;33;34466;-85
2022/07/13 09:54:31;;;;;;;0.77;0.70;;;;;;;28.12;29.95;100700.06;5378446;33;35300;-88
2022/07/13 09:57:39;;;;;;;1.40;0.90;;;;;;;28.16;29.98;100694.78;5358836;33;34091;-89
2022/07/13 10:00:42;;;;;;;0.80;0.80;;;;;;;28.38;29.57;100699.88;5342928;33;32716;-84
2022/07/13 10:03:47;;;;;;;0.68;0.68;;;;;;;28.51;29.40;100690.94;5361527;33;33923;-85
2022/07/13 10:06:50;;;;;;;0.60;0.60;;;;;;;28.45;29.33;100705.94;5360640;33;33115;-85
2022/07/13 10:09:54;;;;;;;0.98;0.60;;;;;;;28.58;28.80;100699.75;5359218;33;34160;-82
2022/07/13 10:13:05;;;;;;;1.02;0.70;;;;;;;28.83;28.29;100695.06;5357578;33;34263;-83
2022/07/13 10:16:08;;;;;;;1.12;0.82;;;;;;;28.91;28.09;100703.59;5362264;33;33750;-83
2022/07/13 10:19:11;;;;;;;0.70;0.65;;;;;;;29.12;27.83;100684.00;5368318;33;35257;-83
2022/07/13 10:22:26;;;;;;;2.05;0.80;;;;;;;28.83;28.23;100692.31;5368745;33;34275;-83
2022/07/13 10:25:43;;;;;;;0.93;0.88;;;;;;;28.78;28.24;100686.81;5367747;33;33906;-82
2022/07/13 10:29:05;;;;;;;1.33;0.60;;;;;;;29.08;27.20;100681.00;5355033;33;34079;-82
2022/07/13 10:32:08;;;;;;;0.75;0.65;;;;;;;29.48;26.45;100680.78;5362269;33;34141;-82
2022/07/13 10:35:13;;;;;;;1.65;1.00;;;;;;;29.43;26.17;100678.91;5362953;33;34559;-81
2022/07/13 10:38:17;;;;;;;1.95;0.70;;;;;;;29.59;26.41;100672.03;5347237;33;32651;-82
2022/07/13 10:41:21;;;;;;;0.60;0.60;;;;;;;29.71;26.51;100665.25;5360578;33;34177;-82
2022/07/13 10:44:42;;;;;;;0.73;0.73;;;;;;;30.10;26.08;100655.78;5348501;33;32677;-82
2022/07/13 10:47:45;;;;;;;2.85;0.60;;;;;;;30.41;25.56;100664.47;5353664;33;32688;-83
2022/07/13 10:50:54;;;;;;;0.85;0.60;;;;;;;30.24;25.71;100665.03;5365125;33;34295;-82
2022/07/13 10:54:00;;;;;;;1.48;0.77;;;;;;;30.54;25.42;100662.84;5362995;33;34596;-82
2022/07/13 10:57:14;;;;;;;0.70;0.60;;;;;;;31.30;24.70;100672.56;5361310;33;33914;-81
2022/07/13 11:00:37;;;;;;;0.77;0.60;;;;;;;31.42;24.04;100662.91;5342772;33;32967;-84
2022/07/13 11:03:47;;;;;;;0.82;0.60;;;;;;;31.76;23.10;100657.66;5359943;33;33626;-84
2022/07/13 11:07:07;;;;;;;0.30;0.22;;;;;;;31.88;22.74;100645.12;5373245;33;34591;-84
2022/07/13 11:10:17;;;;;;;0.55;0.55;;;;;;;32.41;21.74;100647.19;5378406;33;34857;-83
2022/07/13 11:13:24;;;;;;;0.90;0.68;;;;;;;32.39;21.75;100646.72;5361899;33;32520;-84
2022/07/13 11:16:48;;;;;;;1.02;0.60;;;;;;;32.32;21.58;100647.13;5358357;33;34555;-83
2022/07/13 11:20:09;;;;;;;0.70;0.70;;;;;;;32.42;21.56;100644.09;5350397;33;32214;-83
2022/07/13 11:26:53;;;;;;;0.40;0.40;;;;;;;33.47;21.34;100627.84;5351921;33;32740;-83
2022/07/13 11:30:02;;;;;;;0.32;0.32;;;;;;;34.30;19.09;100631.31;5353255;33;32272;-83
2022/07/13 11:33:11;;;;;;;0.37;0.37;;;;;;;34.73;18.74;100626.81;5369487;33;34300;-87
2022/07/13 11:36:13;;;;;;;1.67;0.55;;;;;;;35.15;18.18;100624.16;5375125;33;33895;-87
2022/07/13 11:39:33;;;;;;;0.68;0.68;;;;;;;35.99;17.52;100613.03;5358549;33;33564;-84
2022/07/13 11:42:36;;;;;;;1.83;0.60;;;;;;;36.73;17.14;100617.72;5361199;33;34333;-83
2022/07/13 11:45:41;;;;;;;0.50;0.50;;;;;;;37.28;16.26;100614.69;5360770;33;33974;-84
2022/07/13 11:48:44;;;;;;;0.60;0.50;;;;;;;37.42;15.87;100612.34;5347537;33;33102;-83
2022/07/13 11:51:47;;;;;;;1.60;0.70;;;;;;;36.83;16.62;100613.66;5377328;33;34272;-84
2022/07/13 11:55:02;;;;;;;0.70;0.50;;;;;;;37.72;16.11;100607.25;5372207;33;34080;-84
2022/07/13 11:58:20;;;;;;;0.57;0.57;;;;;;;38.59;15.78;100613.31;5370657;33;34344;-84
2022/07/13 12:01:23;;;;;;;0.65;0.30;;;;;;;37.88;16.25;100612.91;5361104;33;34002;-85
2022/07/13 12:04:26;;;;;;;0.40;0.40;;;;;;;38.16;16.05;100617.75;5369400;33;33576;-85
2022/07/13 12:07:32;;;;;;;0.88;0.65;;;;;;;38.54;15.96;100609.59;5359216;33;33447;-84
2022/07/13 12:10:35;;;;;;;0.45;0.45;;;;;;;38.62;15.74;100598.53;5359477;33;32266;-83
2022/07/13 12:13:40;;;;;;;3.65;0.60;;;;;;;39.14;15.32;100597.38;5356324;33;32382;-83
2022/07/13 12:16:43;;;;;;;0.55;0.30;;;;;;;39.70;15.17;100601.91;5347361;33;33729;-83
2022/07/13 12:19:46;;;;;;;0.75;0.50;;;;;;;39.16;15.00;100617.56;5349222;33;32970;-84
2022/07/13 12:22:56;;;;;;;0.77;0.50;;;;;;;39.33;15.10;100603.09;5354132;33;33517;-84
2022/07/13 12:26:06;;;;;;;0.60;0.60;;;;;;;40.56;13.90;100604.41;5353319;33;34527;-84
2022/07/13 12:29:25;;;;;;;1.85;0.50;;;;;;;40.49;13.86;100591.00;5351689;33;33336;-84
2022/07/13 12:32:28;;;;;;;0.40;0.40;;;;;;;41.30;13.23;100581.41;5354802;33;32957;-84
2022/07/13 12:35:40;;;;;;;2.42;0.50;;;;;;;40.70;13.42;100584.94;5350598;33;34228;-84
2022/07/13 12:38:53;;;;;;;0.43;0.30;;;;;;;41.26;12.78;100586.22;5376846;33;34222;-85
2022/07/13 12:41:56;;;;;;;1.02;0.43;;;;;;;42.19;12.12;100589.44;5365217;33;33771;-90
2022/07/13 12:44:58;;;;;;;0.70;0.40;;;;;;;42.46;12.13;100595.78;5379465;33;33997;-89
2022/07/13 12:48:01;;;;;;;2.05;0.73;;;;;;;42.07;12.43;100584.84;5371038;33;34036;-86
2022/07/13 12:51:09;;;;;;;1.08;0.30;;;;;;;42.29;12.06;100595.16;5360750;33;34167;-86
2022/07/13 12:54:14;;;;;;;0.90;0.32;;;;;;;43.37;11.12;100577.03;5362527;33;34026;-88
2022/07/13 12:57:22;;;;;;;4.68;0.65;;;;;;;43.15;11.18;100578.16;5360213;33;33991;-86
2022/07/13 13:00:26;;;;;;;0.68;0.30;;;;;;;42.54;11.06;100567.13;5367995;33;35154;-87
2022/07/13 13:03:28;;;;;;;0.52;0.40;;;;;;;42.43;11.06;100571.88;5373344;33;33930;-87
2022/07/13 13:06:36;;;;;;;0.35;0.35;;;;;;;42.20;11.11;100571.22;5356348;33;132945;-86
2022/07/13 13:09:40;;;;;;;0.52;0.50;;;;;;;42.47;10.97;100564.22;5360544;33;33735;-87
2022/07/13 13:12:43;;;;;;;1.45;0.50;;;;;;;42.67;11.02;100558.34;5359533;33;34719;-87
2022/07/13 13:15:45;;;;;;;0.32;0.25;;;;;;;44.27;10.04;100568.87;5356726;33;34603;-87
2022/07/13 13:18:49;;;;;;;0.88;0.52;;;;;;;44.27;9.69;100563.19;5343730;33;33080;-84
2022/07/13 13:21:51;;;;;;;0.50;0.47;;;;;;;44.26;9.79;100559.56;5342350;33;33888;-84
2022/07/13 13:24:54;;;;;;;0.30;0.30;;;;;;;44.09;10.16;100551.81;5348019;33;35413;-84
2022/07/13 13:27:57;;;;;;;0.30;0.30;;;;;;;43.03;10.65;100539.56;5360297;33;33917;-84
2022/07/13 13:31:05;;;;;;;2.37;0.57;;;;;;;43.85;10.32;100542.00;5360010;33;34670;-84
2022/07/13 13:34:08;;;;;;;0.20;0.20;;;;;;;42.76;11.04;100539.81;5354208;33;32493;-84
2022/07/13 13:37:21;;;;;;;2.15;0.47;;;;;;;42.38;11.50;100541.09;5367141;33;34291;-84
2022/07/13 13:40:24;;;;;;;2.40;0.45;;;;;;;42.72;11.17;100538.16;5346491;33;33131;-84
2022/07/13 13:43:27;;;;;;;0.45;0.45;;;;;;;43.55;10.87;100531.78;5351017;33;32935;-84
2022/07/13 13:46:29;;;;;;;0.90;0.40;;;;;;;44.73;10.30;100534.84;5352064;33;33312;-84
2022/07/13 13:49:32;;;;;;;0.45;0.30;;;;;;;43.72;10.71;100521.72;5364596;33;33747;-84
2022/07/13 13:52:35;;;;;;;0.82;0.40;;;;;;;43.32;11.03;100525.59;5366816;33;34483;-84
2022/07/13 13:55:38;;;;;;;0.40;0.40;;;;;;;42.03;11.77;100525.37;5364973;33;33215;-86
2022/07/13 13:58:41;;;;;;;1.08;0.37;;;;;;;42.28;11.81;100507.84;5360505;33;33179;-87
2022/07/13 14:01:43;;;;;;;0.50;0.50;;;;;;;42.23;11.98;100520.31;5365935;33;34570;-87
2022/07/13 14:04:50;;;;;;;0.43;0.40;;;;;;;41.31;12.31;100517.25;5353312;33;32197;-86
2022/07/13 14:07:53;;;;;;;0.40;0.40;;;;;;;41.83;12.15;100516.28;5353302;33;34137;-88
2022/07/13 14:10:56;;;;;;;0.20;0.20;;;;;;;40.53;12.95;100520.50;5369583;33;34584;-88
2022/07/13 14:14:19;;;;;;;0.30;0.30;;;;;;;37.93;14.84;100508.66;5370658;33;33837;-88
2022/07/13 14:17:22;;;;;;;3.08;0.40;;;;;;;36.25;15.90;100512.69;5371859;33;35376;-88
2022/07/13 14:20:24;;;;;;;0.30;0.30;;;;;;;35.64;16.65;100504.09;5361069;33;33799;-89
2022/07/13 14:23:27;;;;;;;0.77;0.40;;;;;;;34.61;17.45;100507.25;5360498;33;35362;-91
2022/07/13 14:26:31;;;;;;;0.30;0.30;;;;;;;34.60;17.72;100507.56;5357894;33;34295;-91
2022/07/13 14:29:34;;;;;;;1.45;0.40;;;;;;;33.79;18.21;100498.94;5358601;33;32693;-91
2022/07/13 14:32:37;;;;;;;0.50;0.50;;;;;;;33.18;18.70;100498.94;5359580;33;34460;-88
2022/07/13 14:35:44;;;;;;;2.10;0.95;;;;;;;32.71;18.85;100509.81;5346393;33;32977;-88
2022/07/13 14:38:48;;;;;;;0.40;0.40;;;;;;;32.55;19.63;100497.44;5351761;33;33951;-87
2022/07/13 14:41:58;;;;;;;0.85;0.50;;;;;;;32.19;19.71;100492.84;5349468;33;34031;-87
2022/07/13 14:45:01;;;;;;;0.40;0.40;;;;;;;31.94;19.88;100496.31;5344939;33;32443;-88
2022/07/13 14:48:05;;;;;;;2.58;0.52;;;;;;;31.82;20.29;100492.09;5354010;33;34246;-87
2022/07/13 14:51:27;;;;;;;0.43;0.43;;;;;;;31.96;19.97;100485.69;5369920;33;35363;-87
2022/07/13 14:54:30;;;;;;;0.40;0.40;;;;;;;31.78;20.36;100499.47;5361620;33;34013;-88
2022/07/13 14:57:33;;;;;;;0.50;0.50;;;;;;;31.66;20.41;100484.50;5369229;33;33617;-87
2022/07/13 15:00:36;;;;;;;0.57;0.55;;;;;;;31.39;20.98;100487.06;5337361;33;32577;-88
2022/07/13 15:03:39;;;;;;;1.58;0.50;;;;;;;31.15;21.41;100480.94;5350267;33;32873;-87
2022/07/13 15:06:43;;;;;;;0.47;0.47;;;;;;;31.05;21.67;100492.31;5351834;33;34250;-88
2022/07/13 15:09:46;;;;;;;0.50;0.47;;;;;;;30.98;21.33;100480.75;5343716;33;33134;-88
2022/07/13 15:13:09;;;;;;;1.08;0.32;;;;;;;30.95;21.38;100480.28;5361707;33;34055;-87
2022/07/13 15:16:12;;;;;;;0.60;0.60;;;;;;;30.93;21.17;100471.41;5361581;33;33734;-88
2022/07/13 15:19:15;;;;;;;0.73;0.50;;;;;;;30.81;20.78;100471.13;5362809;33;35220;-87
2022/07/13 15:22:17;;;;;;;0.62;0.47;;;;;;;30.49;20.90;100470.09;5365401;33;33921;-87
2022/07/13 15:25:20;;;;;;;0.40;0.40;;;;;;;30.58;21.30;100467.41;5363954;33;33887;-88
2022/07/13 15:28:23;;;;;;;0.90;0.60;;;;;;;30.36;21.50;100478.41;5388148;27;34507;-88
2022/07/13 15:31:26;;;;;;;0.45;0.37;;;;;;;30.30;21.31;100469.38;5375749;33;33776;-87
2022/07/13 15:34:29;;;;;;;0.95;0.40;;;;;;;30.23;21.82;100467.00;5362668;27;33165;-88
2022/07/13 15:37:33;;;;;;;1.27;0.60;;;;;;;30.42;21.70;100466.06;5364378;33;34398;-88
2022/07/13 15:44:01;;;;;;;1.30;0.68;;;;;;;30.42;21.56;100460.50;5344881;33;34065;-88
2022/07/13 15:47:04;;;;;;;0.50;0.50;;;;;;;30.37;21.64;100455.09;5344889;33;33812;-88
2022/07/13 15:50:07;;;;;;;0.60;0.60;;;;;;;30.28;21.89;100464.13;5345103;33;34515;-88
2022/07/13 15:53:10;;;;;;;0.50;0.40;;;;;;;30.12;22.26;100462.72;5350423;33;35409;-88
2022/07/13 15:56:13;;;;;;;1.27;0.65;;;;;;;30.05;22.10;100460.37;5345760;33;35868;-88
2022/07/13 15:59:36;;;;;;;0.50;0.50;;;;;;;30.00;21.80;100449.34;5377441;27;33602;-87
